SHT2V EGLL-EGCC
Flight info
| Callsign | SHT2V |
|---|---|
| Flight time | 0h 39m |
| Altitude | 16000 |
| Route | ULTIB T420 ELVOS |
| Aircraft | A320/M-SDE3FGHIRWY/LB1 |
Departure
| Time | 2026-05-07 18:25 |
|---|---|
| Airport | London Heathrow Airport (EGLL) |
Arrival
| Time | 2026-05-07 19:04 |
|---|---|
| Airport | Manchester Airport (EGCC) |
| Time | Latitude | Longitude | Altitude | Speed | Heading |
|---|---|---|---|---|---|
| 2026-05-07 17:39 | 51.47271 | -0.48585 | 86 ft | 0 kts | 269° |
| 2026-05-07 18:12 | 51.47271 | -0.48551 | 89 ft | 4 kts | 269° |
| 2026-05-07 18:12 | 51.47271 | -0.48516 | 86 ft | 4 kts | 267° |
| 2026-05-07 18:12 | 51.47278 | -0.48481 | 88 ft | 4 kts | 211° |
| 2026-05-07 18:13 | 51.47301 | -0.48473 | 86 ft | 4 kts | 179° |
| 2026-05-07 18:13 | 51.47311 | -0.48473 | 86 ft | 0 kts | 179° |
| 2026-05-07 18:19 | 51.47272 | -0.48473 | 88 ft | 12 kts | 180° |
| 2026-05-07 18:20 | 51.47180 | -0.48472 | 86 ft | 15 kts | 179° |
| 2026-05-07 18:20 | 51.47075 | -0.48471 | 86 ft | 16 kts | 179° |
| 2026-05-07 18:20 | 51.46963 | -0.48471 | 87 ft | 15 kts | 180° |
| 2026-05-07 18:20 | 51.46870 | -0.48469 | 86 ft | 11 kts | 180° |
| 2026-05-07 18:21 | 51.46825 | -0.48469 | 86 ft | 0 kts | 180° |
| 2026-05-07 18:21 | 51.46824 | -0.48469 | 86 ft | 1 kts | 180° |
| 2026-05-07 18:22 | 51.46779 | -0.48471 | 86 ft | 10 kts | 185° |
| 2026-05-07 18:22 | 51.46757 | -0.48484 | 86 ft | 10 kts | 210° |
| 2026-05-07 18:22 | 51.46738 | -0.48704 | 86 ft | 14 kts | 251° |
| 2026-05-07 18:22 | 51.46646 | -0.48748 | 90 ft | 15 kts | 182° |
| 2026-05-07 18:23 | 51.46549 | -0.48785 | 88 ft | 13 kts | 184° |
| 2026-05-07 18:23 | 51.46482 | -0.48701 | 89 ft | 14 kts | 107° |
| 2026-05-07 18:23 | 51.46479 | -0.48531 | 88 ft | 17 kts | 89° |
| 2026-05-07 18:23 | 51.46480 | -0.48357 | 87 ft | 9 kts | 90° |
| 2026-05-07 18:24 | 51.46480 | -0.48271 | 92 ft | 8 kts | 90° |
| 2026-05-07 18:24 | 51.46479 | -0.47944 | 87 ft | 73 kts | 90° |
| 2026-05-07 18:24 | 51.46482 | -0.47187 | 87 ft | 129 kts | 89° |
| 2026-05-07 18:24 | 51.46472 | -0.45399 | 256 ft | 181 kts | 91° |
| 2026-05-07 18:25 | 51.46468 | -0.43315 | 1160 ft | 187 kts | 91° |
| 2026-05-07 18:25 | 51.46649 | -0.41227 | 1988 ft | 198 kts | 69° |
| 2026-05-07 18:25 | 51.47511 | -0.39322 | 2420 ft | 225 kts | 51° |
| 2026-05-07 18:25 | 51.48591 | -0.37322 | 2915 ft | 249 kts | 51° |
| 2026-05-07 18:26 | 51.49742 | -0.35148 | 3722 ft | 259 kts | 51° |
| 2026-05-07 18:26 | 51.50918 | -0.32907 | 4669 ft | 264 kts | 51° |
| 2026-05-07 18:26 | 51.52072 | -0.30577 | 5543 ft | 271 kts | 59° |
| 2026-05-07 18:26 | 51.52829 | -0.27780 | 5891 ft | 274 kts | 71° |
| 2026-05-07 18:27 | 51.53700 | -0.25072 | 5993 ft | 275 kts | 51° |
| 2026-05-07 18:27 | 51.55183 | -0.23159 | 6016 ft | 276 kts | 25° |
| 2026-05-07 18:27 | 51.57019 | -0.22451 | 6015 ft | 274 kts | 359° |
| 2026-05-07 18:27 | 51.58884 | -0.23074 | 6017 ft | 274 kts | 340° |
| 2026-05-07 18:28 | 51.60702 | -0.23870 | 6016 ft | 275 kts | 345° |
| 2026-05-07 18:28 | 51.62493 | -0.24861 | 6509 ft | 277 kts | 333° |
| 2026-05-07 18:28 | 51.64208 | -0.26290 | 7516 ft | 278 kts | 330° |
| 2026-05-07 18:28 | 51.65904 | -0.27810 | 8458 ft | 281 kts | 329° |
| 2026-05-07 18:29 | 51.67606 | -0.29404 | 9366 ft | 284 kts | 328° |
| 2026-05-07 18:29 | 51.69315 | -0.31041 | 10211 ft | 289 kts | 328° |
| 2026-05-07 18:29 | 51.71104 | -0.32774 | 10570 ft | 311 kts | 327° |
| 2026-05-07 18:29 | 51.73021 | -0.34642 | 10915 ft | 331 kts | 327° |
| 2026-05-07 18:30 | 51.75020 | -0.36586 | 11554 ft | 339 kts | 327° |
| 2026-05-07 18:30 | 51.77044 | -0.38548 | 12246 ft | 345 kts | 327° |
| 2026-05-07 18:30 | 51.79136 | -0.40573 | 12954 ft | 350 kts | 327° |
| 2026-05-07 18:30 | 51.81238 | -0.42604 | 13652 ft | 354 kts | 327° |
| 2026-05-07 18:31 | 51.83361 | -0.44654 | 14190 ft | 357 kts | 327° |
| 2026-05-07 18:31 | 51.85494 | -0.46716 | 14918 ft | 359 kts | 327° |
| 2026-05-07 18:31 | 51.87648 | -0.48805 | 15598 ft | 362 kts | 327° |
| 2026-05-07 18:31 | 51.89811 | -0.50913 | 15949 ft | 363 kts | 327° |
| 2026-05-07 18:32 | 51.91981 | -0.53036 | 16046 ft | 369 kts | 327° |
| 2026-05-07 18:32 | 51.94199 | -0.55203 | 16055 ft | 374 kts | 327° |
| 2026-05-07 18:32 | 51.96436 | -0.57384 | 16056 ft | 375 kts | 327° |
| 2026-05-07 18:32 | 51.98676 | -0.59571 | 16053 ft | 376 kts | 327° |
| 2026-05-07 18:33 | 52.00917 | -0.61761 | 16054 ft | 376 kts | 327° |
| 2026-05-07 18:33 | 52.03158 | -0.63954 | 16055 ft | 376 kts | 327° |
| 2026-05-07 18:33 | 52.05397 | -0.66150 | 16053 ft | 377 kts | 327° |
| 2026-05-07 18:33 | 52.07643 | -0.68358 | 16053 ft | 377 kts | 327° |
| 2026-05-07 18:34 | 52.09895 | -0.70572 | 16053 ft | 377 kts | 327° |
| 2026-05-07 18:34 | 52.12111 | -0.72752 | 16054 ft | 377 kts | 327° |
| 2026-05-07 18:34 | 52.14357 | -0.74970 | 16055 ft | 378 kts | 327° |
| 2026-05-07 18:34 | 52.16600 | -0.77187 | 16057 ft | 378 kts | 327° |
| 2026-05-07 18:35 | 52.18852 | -0.79413 | 16060 ft | 378 kts | 327° |
| 2026-05-07 18:35 | 52.21099 | -0.81636 | 16064 ft | 378 kts | 327° |
| 2026-05-07 18:35 | 52.23348 | -0.83868 | 16085 ft | 377 kts | 327° |
| 2026-05-07 18:35 | 52.25592 | -0.86096 | 16068 ft | 378 kts | 327° |
| 2026-05-07 18:36 | 52.27836 | -0.88320 | 16065 ft | 378 kts | 327° |
| 2026-05-07 18:36 | 52.30079 | -0.90545 | 16063 ft | 377 kts | 327° |
| 2026-05-07 18:36 | 52.32327 | -0.92776 | 16062 ft | 377 kts | 327° |
| 2026-05-07 18:36 | 52.34566 | -0.95008 | 16060 ft | 377 kts | 326° |
| 2026-05-07 18:37 | 52.36811 | -0.97248 | 16058 ft | 377 kts | 327° |
| 2026-05-07 18:37 | 52.39052 | -0.99488 | 16058 ft | 378 kts | 327° |
| 2026-05-07 18:37 | 52.41295 | -1.01729 | 16053 ft | 378 kts | 327° |
| 2026-05-07 18:37 | 52.43538 | -1.03973 | 16053 ft | 378 kts | 327° |
| 2026-05-07 18:38 | 52.45778 | -1.06215 | 16053 ft | 378 kts | 326° |
| 2026-05-07 18:38 | 52.47996 | -1.08442 | 16054 ft | 378 kts | 326° |
| 2026-05-07 18:38 | 52.50239 | -1.10698 | 16056 ft | 378 kts | 326° |
| 2026-05-07 18:38 | 52.52482 | -1.12961 | 16056 ft | 378 kts | 326° |
| 2026-05-07 18:39 | 52.54711 | -1.15211 | 16059 ft | 378 kts | 326° |
| 2026-05-07 18:39 | 52.56953 | -1.17472 | 16057 ft | 378 kts | 326° |
| 2026-05-07 18:39 | 52.59194 | -1.19730 | 16059 ft | 378 kts | 326° |
| 2026-05-07 18:39 | 52.61431 | -1.21985 | 16057 ft | 378 kts | 326° |
| 2026-05-07 18:40 | 52.63683 | -1.24258 | 16058 ft | 378 kts | 326° |
| 2026-05-07 18:40 | 52.65901 | -1.26500 | 16006 ft | 375 kts | 326° |
| 2026-05-07 18:40 | 52.68103 | -1.28732 | 15750 ft | 363 kts | 326° |
| 2026-05-07 18:40 | 52.70221 | -1.30878 | 15500 ft | 352 kts | 326° |
| 2026-05-07 18:41 | 52.72246 | -1.32932 | 15254 ft | 344 kts | 326° |
| 2026-05-07 18:41 | 52.74307 | -1.35026 | 14999 ft | 341 kts | 326° |
| 2026-05-07 18:41 | 52.76320 | -1.37076 | 14743 ft | 339 kts | 326° |
| 2026-05-07 18:41 | 52.78325 | -1.39125 | 14489 ft | 338 kts | 326° |
| 2026-05-07 18:42 | 52.80326 | -1.41174 | 14245 ft | 338 kts | 326° |
| 2026-05-07 18:42 | 52.82318 | -1.43214 | 14049 ft | 337 kts | 326° |
| 2026-05-07 18:42 | 52.84305 | -1.45248 | 14016 ft | 337 kts | 326° |
| 2026-05-07 18:42 | 52.86298 | -1.47289 | 14025 ft | 337 kts | 326° |
| 2026-05-07 18:43 | 52.88290 | -1.49335 | 14026 ft | 337 kts | 326° |
| 2026-05-07 18:43 | 52.90284 | -1.51383 | 14026 ft | 337 kts | 326° |
| 2026-05-07 18:43 | 52.92271 | -1.53429 | 13812 ft | 337 kts | 326° |
| 2026-05-07 18:43 | 52.94263 | -1.55483 | 13579 ft | 335 kts | 326° |
| 2026-05-07 18:44 | 52.96239 | -1.57520 | 13323 ft | 334 kts | 326° |
| 2026-05-07 18:44 | 52.98213 | -1.59558 | 13068 ft | 333 kts | 326° |
| 2026-05-07 18:44 | 53.00147 | -1.61556 | 12829 ft | 332 kts | 326° |
| 2026-05-07 18:44 | 53.02108 | -1.63583 | 12592 ft | 331 kts | 326° |
| 2026-05-07 18:45 | 53.04088 | -1.65634 | 12338 ft | 330 kts | 325° |
| 2026-05-07 18:45 | 53.05877 | -1.67988 | 12089 ft | 326 kts | 312° |
| 2026-05-07 18:45 | 53.07346 | -1.70760 | 11862 ft | 325 kts | 307° |
| 2026-05-07 18:45 | 53.08821 | -1.73641 | 11613 ft | 318 kts | 308° |
| 2026-05-07 18:46 | 53.10245 | -1.76398 | 11369 ft | 312 kts | 308° |
| 2026-05-07 18:46 | 53.11653 | -1.79111 | 11120 ft | 307 kts | 308° |
| 2026-05-07 18:46 | 53.13037 | -1.81784 | 10868 ft | 304 kts | 308° |
| 2026-05-07 18:46 | 53.14472 | -1.84578 | 10525 ft | 344 kts | 308° |
| 2026-05-07 18:47 | 53.16199 | -1.87545 | 9955 ft | 361 kts | 321° |
| 2026-05-07 18:47 | 53.18362 | -1.89331 | 9644 ft | 336 kts | 342° |
| 2026-05-07 18:47 | 53.20534 | -1.90245 | 9516 ft | 310 kts | 345° |
| 2026-05-07 18:47 | 53.22578 | -1.91032 | 9323 ft | 295 kts | 345° |
| 2026-05-07 18:48 | 53.24560 | -1.91785 | 9086 ft | 289 kts | 345° |
| 2026-05-07 18:48 | 53.26513 | -1.92526 | 8778 ft | 287 kts | 345° |
| 2026-05-07 18:48 | 53.28452 | -1.93264 | 8454 ft | 285 kts | 345° |
| 2026-05-07 18:48 | 53.30388 | -1.94002 | 8117 ft | 284 kts | 345° |
| 2026-05-07 18:49 | 53.32313 | -1.94739 | 7776 ft | 283 kts | 345° |
| 2026-05-07 18:49 | 53.34231 | -1.95478 | 7446 ft | 282 kts | 345° |
| 2026-05-07 18:49 | 53.36137 | -1.95842 | 7108 ft | 281 kts | 4° |
| 2026-05-07 18:49 | 53.38112 | -1.95338 | 6754 ft | 282 kts | 10° |
| 2026-05-07 18:50 | 53.40052 | -1.94715 | 6433 ft | 283 kts | 10° |
| 2026-05-07 18:50 | 53.41960 | -1.94094 | 6148 ft | 282 kts | 10° |
| 2026-05-07 18:50 | 53.43879 | -1.93483 | 5851 ft | 279 kts | 8° |
| 2026-05-07 18:50 | 53.45793 | -1.93607 | 5538 ft | 276 kts | 343° |
| 2026-05-07 18:51 | 53.47595 | -1.94718 | 5196 ft | 275 kts | 335° |
| 2026-05-07 18:51 | 53.49151 | -1.96506 | 4862 ft | 271 kts | 309° |
| 2026-05-07 18:51 | 53.50005 | -1.99251 | 4410 ft | 268 kts | 277° |
| 2026-05-07 18:51 | 53.49770 | -2.02264 | 4036 ft | 260 kts | 240° |
| 2026-05-07 18:52 | 53.48554 | -2.04380 | 3712 ft | 251 kts | 205° |
| 2026-05-07 18:52 | 53.46952 | -2.05484 | 3393 ft | 244 kts | 199° |
| 2026-05-07 18:52 | 53.45506 | -2.06789 | 3122 ft | 232 kts | 217° |
| 2026-05-07 18:52 | 53.44405 | -2.08696 | 2834 ft | 223 kts | 227° |
| 2026-05-07 18:53 | 53.43451 | -2.10686 | 2530 ft | 214 kts | 228° |
| 2026-05-07 18:53 | 53.42539 | -2.12604 | 2263 ft | 206 kts | 229° |
| 2026-05-07 18:53 | 53.41673 | -2.14412 | 1998 ft | 200 kts | 230° |
| 2026-05-07 18:53 | 53.41030 | -2.16438 | 1719 ft | 198 kts | 261° |
| 2026-05-07 18:54 | 53.41239 | -2.18677 | 1461 ft | 197 kts | 302° |
| 2026-05-07 18:54 | 53.42192 | -2.20168 | 1888 ft | 186 kts | 327° |
| 2026-05-07 18:54 | 53.43289 | -2.21297 | 2679 ft | 184 kts | 330° |
| 2026-05-07 18:54 | 53.44385 | -2.22410 | 3459 ft | 186 kts | 331° |
| 2026-05-07 18:55 | 53.45543 | -2.23651 | 3870 ft | 209 kts | 330° |
| 2026-05-07 18:55 | 53.46846 | -2.25067 | 3994 ft | 233 kts | 330° |
| 2026-05-07 18:55 | 53.48238 | -2.26553 | 4004 ft | 240 kts | 330° |
| 2026-05-07 18:55 | 53.49728 | -2.27844 | 3998 ft | 242 kts | 347° |
| 2026-05-07 18:56 | 53.51386 | -2.27837 | 4002 ft | 241 kts | 19° |
| 2026-05-07 18:56 | 53.52788 | -2.26383 | 4004 ft | 239 kts | 51° |
| 2026-05-07 18:56 | 53.53545 | -2.23963 | 4020 ft | 234 kts | 76° |
| 2026-05-07 18:56 | 53.53959 | -2.21319 | 4008 ft | 234 kts | 80° |
| 2026-05-07 18:57 | 53.54331 | -2.18649 | 3999 ft | 234 kts | 80° |
| 2026-05-07 18:57 | 53.54695 | -2.15979 | 4009 ft | 234 kts | 80° |
| 2026-05-07 18:57 | 53.55059 | -2.13306 | 3996 ft | 234 kts | 80° |
| 2026-05-07 18:57 | 53.55344 | -2.10627 | 4004 ft | 231 kts | 94° |
| 2026-05-07 18:58 | 53.54922 | -2.08137 | 4001 ft | 224 kts | 126° |
| 2026-05-07 18:58 | 53.53882 | -2.06209 | 4016 ft | 223 kts | 139° |
| 2026-05-07 18:58 | 53.52737 | -2.04463 | 4005 ft | 222 kts | 140° |
| 2026-05-07 18:58 | 53.51582 | -2.02742 | 3999 ft | 219 kts | 140° |
| 2026-05-07 18:59 | 53.50459 | -2.01154 | 3999 ft | 203 kts | 150° |
| 2026-05-07 18:59 | 53.49167 | -2.00628 | 3996 ft | 188 kts | 187° |
| 2026-05-07 18:59 | 53.47975 | -2.01419 | 3871 ft | 185 kts | 217° |
| 2026-05-07 18:59 | 53.47118 | -2.03014 | 3667 ft | 184 kts | 228° |
| 2026-05-07 19:00 | 53.46327 | -2.04689 | 3421 ft | 182 kts | 228° |
| 2026-05-07 19:00 | 53.45538 | -2.06346 | 3183 ft | 182 kts | 227° |
| 2026-05-07 19:00 | 53.44759 | -2.07978 | 2930 ft | 174 kts | 227° |
| 2026-05-07 19:00 | 53.44025 | -2.09512 | 2716 ft | 165 kts | 227° |
| 2026-05-07 19:01 | 53.43316 | -2.10991 | 2505 ft | 160 kts | 228° |
| 2026-05-07 19:01 | 53.42613 | -2.12454 | 2306 ft | 160 kts | 228° |
| 2026-05-07 19:01 | 53.41924 | -2.13889 | 2076 ft | 160 kts | 229° |
| 2026-05-07 19:01 | 53.41227 | -2.15340 | 1860 ft | 160 kts | 229° |
| 2026-05-07 19:02 | 53.40529 | -2.16791 | 1651 ft | 159 kts | 229° |
| 2026-05-07 19:02 | 53.39833 | -2.18239 | 1439 ft | 159 kts | 230° |
| 2026-05-07 19:02 | 53.39137 | -2.19684 | 1227 ft | 158 kts | 230° |
| 2026-05-07 19:02 | 53.38481 | -2.21048 | 1022 ft | 145 kts | 230° |
| 2026-05-07 19:03 | 53.37871 | -2.22315 | 832 ft | 136 kts | 230° |
| 2026-05-07 19:03 | 53.37282 | -2.23537 | 660 ft | 134 kts | 230° |
| 2026-05-07 19:03 | 53.36696 | -2.24752 | 484 ft | 133 kts | 230° |
| 2026-05-07 19:03 | 53.36120 | -2.25951 | 310 ft | 134 kts | 230° |
| 2026-05-07 19:04 | 53.35583 | -2.27062 | 256 ft | 100 kts | 231° |
| 2026-05-07 19:04 | 53.35253 | -2.27744 | 238 ft | 50 kts | 231° |
| 2026-05-07 19:04 | 53.35096 | -2.28073 | 234 ft | 32 kts | 233° |
| 2026-05-07 19:04 | 53.34977 | -2.28386 | 233 ft | 28 kts | 251° |
| 2026-05-07 19:05 | 53.34948 | -2.28575 | 231 ft | 9 kts | 259° |
| 2026-05-07 19:05 | 53.34945 | -2.28695 | 229 ft | 9 kts | 288° |
| 2026-05-07 19:05 | 53.34991 | -2.28751 | 227 ft | 10 kts | 358° |
| 2026-05-07 19:05 | 53.35037 | -2.28704 | 230 ft | 8 kts | 51° |
| 2026-05-07 19:06 | 53.35073 | -2.28624 | 230 ft | 10 kts | 52° |
| 2026-05-07 19:06 | 53.35142 | -2.28489 | 228 ft | 6 kts | 51° |
| 2026-05-07 19:06 | 53.35161 | -2.28449 | 227 ft | 2 kts | 52° |
| 2026-05-07 19:07 | 53.35169 | -2.28432 | 229 ft | 2 kts | 52° |
| 2026-05-07 19:07 | 53.35173 | -2.28422 | 228 ft | 1 kts | 52° |
| 2026-05-07 19:07 | 53.35185 | -2.28397 | 231 ft | 5 kts | 52° |
| 2026-05-07 19:07 | 53.35204 | -2.28356 | 233 ft | 3 kts | 52° |
| 2026-05-07 19:08 | 53.35233 | -2.28300 | 233 ft | 11 kts | 47° |
| 2026-05-07 19:08 | 53.35305 | -2.28211 | 234 ft | 14 kts | 27° |
| 2026-05-07 19:08 | 53.35397 | -2.28165 | 240 ft | 14 kts | 8° |
| 2026-05-07 19:08 | 53.35500 | -2.28120 | 234 ft | 16 kts | 27° |
| 2026-05-07 19:09 | 53.35571 | -2.28017 | 237 ft | 6 kts | 49° |
| 2026-05-07 19:09 | 53.35598 | -2.27960 | 239 ft | 7 kts | 52° |
| 2026-05-07 19:09 | 53.35634 | -2.27901 | 241 ft | 7 kts | 31° |
| 2026-05-07 19:09 | 53.35679 | -2.27886 | 244 ft | 6 kts | 5° |
| 2026-05-07 19:10 | 53.35716 | -2.27880 | 246 ft | 5 kts | 5° |
| 2026-05-07 19:10 | 53.35745 | -2.27875 | 247 ft | 4 kts | 5° |
| 2026-05-07 19:10 | 53.35766 | -2.27872 | 248 ft | 2 kts | 5° |
| 2026-05-07 19:10 | 53.35780 | -2.27870 | 249 ft | 2 kts | 5° |
| 2026-05-07 19:11 | 53.35807 | -2.27865 | 250 ft | 9 kts | 5° |
| 2026-05-07 19:11 | 53.35870 | -2.27856 | 254 ft | 9 kts | 5° |
| 2026-05-07 19:11 | 53.35911 | -2.27850 | 255 ft | 10 kts | 1° |
| 2026-05-07 19:11 | 53.36018 | -2.27942 | 255 ft | 16 kts | 319° |
| 2026-05-07 19:12 | 53.36077 | -2.28028 | 255 ft | 16 kts | 319° |
| 2026-05-07 19:12 | 53.36174 | -2.28184 | 255 ft | 14 kts | 313° |
| 2026-05-07 19:12 | 53.36217 | -2.28261 | 255 ft | 13 kts | 314° |
| 2026-05-07 19:12 | 53.36283 | -2.28369 | 255 ft | 11 kts | 316° |
| 2026-05-07 19:13 | 53.36345 | -2.28462 | 255 ft | 13 kts | 331° |
| 2026-05-07 19:13 | 53.36431 | -2.28513 | 255 ft | 13 kts | 325° |
| 2026-05-07 19:13 | 53.36500 | -2.28629 | 255 ft | 16 kts | 314° |
| 2026-05-07 19:13 | 53.36561 | -2.28734 | 255 ft | 13 kts | 310° |
| 2026-05-07 19:14 | 53.36617 | -2.28871 | 255 ft | 16 kts | 313° |
| 2026-05-07 19:14 | 53.36690 | -2.28993 | 255 ft | 13 kts | 314° |
| 2026-05-07 19:14 | 53.36754 | -2.29073 | 255 ft | 12 kts | 353° |
| 2026-05-07 19:14 | 53.36838 | -2.29029 | 255 ft | 11 kts | 31° |
| 2026-05-07 19:15 | 53.36905 | -2.28926 | 255 ft | 14 kts | 44° |
| 2026-05-07 19:15 | 53.36960 | -2.28833 | 255 ft | 8 kts | 45° |
| 2026-05-07 19:15 | 53.36981 | -2.28760 | 255 ft | 8 kts | 104° |
| 2026-05-07 19:15 | 53.36949 | -2.28696 | 255 ft | 4 kts | 135° |
| 2026-05-07 19:16 | 53.36947 | -2.28693 | 255 ft | 0 kts | 135° |